Time;durP1;ratioP1;P1;durP2;ratioP2;P2;SDS_P1;SDS_P2;PMS_P1;PMS_P2;Temp;Humidity;BMP_temperature;BMP_pressure;BME280_temperature;BME280_humidity;BME280_pressure;Samples;Min_cycle;Max_cycle;Signal;HPM_P1;HPM_P2
2022/01/24 00:00:10;;;;;;;75.10;38.73;;;;;;;5.22;90.46;103473.09;5024698;28;20040;-57
2022/01/24 00:02:37;;;;;;;72.17;38.03;;;;;;;5.21;90.27;103471.38;5027703;28;20037;-55
2022/01/24 00:05:02;;;;;;;71.00;39.43;;;;;;;5.21;90.01;103469.59;5029305;28;20586;-56
2022/01/24 00:07:27;;;;;;;69.33;37.83;;;;;;;5.19;89.43;103474.06;5029025;28;20092;-56
2022/01/24 00:09:56;;;;;;;66.50;37.97;;;;;;;5.19;89.49;103468.78;5027943;28;20019;-56
2022/01/24 00:17:33;;;;;;;65.27;37.70;;;;;;;5.10;87.92;103469.22;5029295;28;20261;-57
2022/01/24 00:28:09;;;;;;;62.13;35.93;;;;;;;5.04;87.16;103461.59;5028070;28;20626;-55
2022/01/24 00:30:34;;;;;;;63.07;36.80;;;;;;;5.03;86.75;103459.91;5026786;28;20021;-56
2022/01/24 00:33:00;;;;;;;58.07;35.17;;;;;;;5.03;86.70;103461.66;5029842;28;20032;-54
2022/01/24 00:35:25;;;;;;;59.53;35.97;;;;;;;5.00;86.51;103454.78;5031416;28;20021;-55
2022/01/24 00:37:51;;;;;;;57.50;34.77;;;;;;;5.00;86.08;103453.91;5028159;28;20036;-56
2022/01/24 00:40:16;;;;;;;55.57;33.53;;;;;;;4.96;85.95;103454.06;5026868;28;20024;-56
2022/01/24 00:45:16;;;;;;;51.77;32.13;;;;;;;4.95;84.63;103451.50;5027215;28;20480;-56
2022/01/24 00:56:05;;;;;;;48.23;31.37;;;;;;;4.94;83.21;103452.44;5025472;28;20040;-56
2022/01/24 00:58:30;;;;;;;49.20;32.03;;;;;;;4.91;82.69;103449.91;5027346;28;20036;-56
2022/01/24 01:00:55;;;;;;;51.97;32.40;;;;;;;4.90;82.80;103453.47;5026701;28;20021;-56
2022/01/24 01:03:21;;;;;;;53.83;32.53;;;;;;;4.86;82.91;103457.16;5027863;28;20029;-57
2022/01/24 01:06:04;;;;;;;51.93;32.67;;;;;;;4.85;82.32;103452.81;5027159;28;20481;-56
2022/01/24 01:19:28;;;;;;;54.80;33.37;;;;;;;4.88;82.36;103444.78;5026631;28;20063;-53
2022/01/24 01:21:53;;;;;;;51.23;34.13;;;;;;;4.88;82.79;103445.63;5027688;28;20025;-55
2022/01/24 01:24:19;;;;;;;50.43;33.50;;;;;;;4.90;82.56;103445.56;5027790;28;20017;-56
2022/01/24 01:26:51;;;;;;;50.13;32.50;;;;;;;4.91;82.80;103440.22;5028441;28;20067;-56
2022/01/24 01:29:22;;;;;;;51.30;33.00;;;;;;;4.91;82.78;103444.63;5027059;28;20083;-55
2022/01/24 01:31:59;;;;;;;51.13;32.97;;;;;;;4.91;82.84;103450.75;5027227;28;20132;-55
2022/01/24 01:39:53;;;;;;;47.20;30.67;;;;;;;4.92;82.11;103449.84;5030430;28;20044;-56
2022/01/24 01:53:33;;;;;;;55.13;33.57;;;;;;;4.93;82.48;103443.66;5029803;28;20107;-55
2022/01/24 01:55:58;;;;;;;53.53;33.40;;;;;;;4.93;82.21;103448.94;5030422;28;20025;-56
2022/01/24 01:58:24;;;;;;;51.77;32.67;;;;;;;4.92;82.34;103456.91;5030824;28;20052;-56
2022/01/24 02:00:53;;;;;;;53.23;32.87;;;;;;;4.93;82.28;103455.97;5029325;28;20032;-56
2022/01/24 02:03:19;;;;;;;52.55;33.10;;;;;;;4.94;82.03;103445.38;5030643;28;20556;-56
2022/01/24 02:05:44;;;;;;;54.40;31.73;;;;;;;4.96;81.95;103443.53;5030876;28;20029;-56
2022/01/24 02:08:10;;;;;;;49.97;31.20;;;;;;;4.96;82.07;103438.25;5031065;28;20031;-57
2022/01/24 02:10:38;;;;;;;51.47;32.00;;;;;;;4.93;81.88;103433.13;5029752;28;20227;-56
2022/01/24 02:13:04;;;;;;;44.40;29.43;;;;;;;4.93;81.74;103432.28;5030279;28;20117;-56
2022/01/24 02:18:16;;;;;;;45.07;30.20;;;;;;;4.97;81.35;103434.69;5030689;28;20053;-56
2022/01/24 02:25:54;;;;;;;46.07;29.80;;;;;;;4.95;81.53;103431.28;5030205;28;20037;-56
2022/01/24 02:28:22;;;;;;;49.07;29.77;;;;;;;4.98;81.76;103432.91;5031098;28;20037;-56
2022/01/24 02:33:33;;;;;;;42.30;27.37;;;;;;;4.95;81.35;103419.91;5027833;28;20500;-56
2022/01/24 02:35:58;;;;;;;46.60;28.23;;;;;;;4.93;80.87;103419.13;5026956;28;20029;-56
2022/01/24 02:46:04;;;;;;;37.87;25.03;;;;;;;4.91;81.06;103420.94;5028320;28;20119;-57
2022/01/24 02:49:12;;;;;;;37.07;23.73;;;;;;;4.82;80.38;103424.00;5028599;28;20056;-54
2022/01/24 02:51:47;;;;;;;38.30;24.63;;;;;;;4.82;80.89;103418.72;5031115;28;20544;-55
2022/01/24 02:54:27;;;;;;;37.93;24.27;;;;;;;4.82;80.25;103424.84;5030064;28;20033;-56
2022/01/24 02:56:53;;;;;;;36.87;23.23;;;;;;;4.81;80.42;103417.88;5029226;28;20026;-56
2022/01/24 02:59:18;;;;;;;35.60;23.10;;;;;;;4.80;80.58;103416.19;5028399;28;20059;-56
2022/01/24 03:01:45;;;;;;;36.87;22.90;;;;;;;4.81;80.54;103417.03;5029787;28;20491;-56
2022/01/24 03:04:10;;;;;;;32.00;22.50;;;;;;;4.81;80.46;103407.34;5023852;28;20033;-56
2022/01/24 03:06:36;;;;;;;35.00;23.10;;;;;;;4.80;80.08;103415.31;5030314;28;20028;-56
2022/01/24 03:09:06;;;;;;;30.87;21.30;;;;;;;4.79;80.30;103409.19;5027372;28;20037;-56
2022/01/24 03:14:27;;;;;;;33.37;21.57;;;;;;;4.80;80.42;103404.78;5010744;28;20111;-56
2022/01/24 03:16:53;;;;;;;35.70;23.08;;;;;;;4.80;80.42;103403.00;5028736;28;20021;-57
2022/01/24 03:19:18;;;;;;;33.20;21.63;;;;;;;4.79;80.30;103395.19;5024920;28;20021;-55
2022/01/24 03:21:43;;;;;;;35.30;23.37;;;;;;;4.80;80.47;103399.53;5031252;28;20079;-55
2022/01/24 03:24:10;;;;;;;31.07;21.57;;;;;;;4.79;80.38;103400.44;5029627;28;20124;-56
2022/01/24 03:26:35;;;;;;;33.27;21.10;;;;;;;4.80;80.32;103389.00;5028895;28;20116;-55
2022/01/24 03:29:00;;;;;;;31.57;21.73;;;;;;;4.79;80.30;103397.81;5028375;28;20560;-56
2022/01/24 03:31:26;;;;;;;29.53;20.60;;;;;;;4.79;79.98;103397.81;5029164;28;20021;-56
2022/01/24 03:33:51;;;;;;;31.20;20.70;;;;;;;4.78;80.14;103391.69;5028848;28;20532;-56
2022/01/24 03:36:17;;;;;;;35.00;21.37;;;;;;;4.71;80.02;103385.00;5029353;28;20051;-56
2022/01/24 03:38:42;;;;;;;33.50;21.00;;;;;;;4.75;80.20;103398.88;5028558;28;20032;-56
2022/01/24 03:41:07;;;;;;;32.30;21.17;;;;;;;4.75;79.85;103396.25;5028863;28;20128;-55
2022/01/24 03:43:33;;;;;;;30.67;20.50;;;;;;;4.74;80.18;103399.81;5029450;28;20018;-55
2022/01/24 03:48:48;;;;;;;32.17;20.83;;;;;;;4.73;79.74;103403.38;5024821;28;20022;-56
2022/01/24 03:51:14;;;;;;;30.37;20.83;;;;;;;4.75;79.83;103399.75;5028508;28;20104;-56
2022/01/24 03:53:41;;;;;;;30.47;20.40;;;;;;;4.75;79.89;103393.63;5028922;28;20124;-56
2022/01/24 03:56:07;;;;;;;28.93;20.57;;;;;;;4.74;79.81;103395.41;5028529;28;20030;-56
2022/01/24 03:58:33;;;;;;;30.43;20.60;;;;;;;4.74;79.85;103394.53;5026623;28;20029;-56
2022/01/24 04:00:59;;;;;;;29.10;20.93;;;;;;;4.75;79.87;103391.84;5028584;28;20029;-56
2022/01/24 04:03:25;;;;;;;29.77;20.93;;;;;;;4.75;79.89;103391.00;5028101;28;20053;-55
2022/01/24 04:05:50;;;;;;;30.43;21.57;;;;;;;4.74;79.99;103390.13;5029122;28;20484;-56
2022/01/24 04:08:16;;;;;;;30.83;20.93;;;;;;;4.76;79.70;103392.69;5026615;28;20421;-56
2022/01/24 04:10:44;;;;;;;30.43;20.80;;;;;;;4.76;80.09;103387.44;5031843;28;20047;-57
2022/01/24 04:13:25;;;;;;;32.63;20.83;;;;;;;4.77;80.23;103390.00;5028574;28;20037;-55
2022/01/24 04:16:11;;;;;;;32.53;21.53;;;;;;;4.77;80.00;103383.88;5029500;28;20079;-56
2022/01/24 04:18:53;;;;;;;31.90;21.60;;;;;;;4.76;79.86;103385.66;5028093;28;20033;-55
2022/01/24 04:24:04;;;;;;;30.73;21.43;;;;;;;4.77;79.97;103386.50;5025016;28;20038;-56
2022/01/24 04:26:30;;;;;;;31.00;21.50;;;;;;;4.75;79.84;103378.69;5027623;28;20116;-57
2022/01/24 04:28:55;;;;;;;32.03;21.63;;;;;;;4.73;79.53;103384.94;5027852;28;20122;-56
2022/01/24 04:31:23;;;;;;;32.50;20.93;;;;;;;4.72;79.47;103386.72;5027822;28;20488;-56
2022/01/24 04:33:48;;;;;;;32.17;21.13;;;;;;;4.69;79.71;103392.13;5023879;28;20135;-55
2022/01/24 04:36:15;;;;;;;30.73;21.70;;;;;;;4.69;79.85;103391.28;5028292;28;20103;-57
2022/01/24 04:38:41;;;;;;;31.23;21.00;;;;;;;4.71;79.73;103389.44;5026190;28;20120;-56
2022/01/24 04:41:15;;;;;;;33.47;22.07;;;;;;;4.68;79.82;103394.84;5027335;28;20108;-56
2022/01/24 04:43:55;;;;;;;32.83;22.63;;;;;;;4.63;79.59;103385.38;5027967;28;20060;-56
2022/01/24 04:51:30;;;;;;;31.70;21.23;;;;;;;4.72;79.95;103401.66;5028192;28;20079;-56
2022/01/24 04:56:33;;;;;;;31.20;21.30;;;;;;;4.65;79.62;103391.41;5028447;28;20045;-56
2022/01/24 04:58:58;;;;;;;31.27;21.17;;;;;;;4.68;79.82;103397.47;5026702;28;20040;-56
2022/01/24 05:01:24;;;;;;;30.37;20.93;;;;;;;4.70;80.04;103398.25;5027849;28;20034;-56
2022/01/24 05:03:49;;;;;;;35.23;22.03;;;;;;;4.65;79.76;103386.16;5026760;28;20057;-55
2022/01/24 05:06:14;;;;;;;36.30;22.30;;;;;;;4.66;79.82;103397.53;5021988;28;20116;-56
2022/01/24 05:08:39;;;;;;;32.43;21.57;;;;;;;4.69;79.78;103407.91;5024928;28;20033;-57
2022/01/24 05:11:09;;;;;;;36.60;22.23;;;;;;;4.66;79.73;103392.28;5027235;28;20048;-57
2022/01/24 05:23:27;;;;;;;32.33;22.43;;;;;;;4.62;79.93;103396.78;5027588;28;20424;-56
2022/01/24 05:24:41;;;;;;;32.83;21.33;;;;;;;4.57;79.60;103390.03;5024968;28;20045;-56
2022/01/24 05:27:07;;;;;;;32.77;22.40;;;;;;;4.57;79.81;103388.25;5027616;28;20501;-55
2022/01/24 05:29:32;;;;;;;32.13;21.67;;;;;;;4.53;79.75;103386.69;5025949;28;20065;-55
2022/01/24 05:31:57;;;;;;;35.93;22.17;;;;;;;4.54;79.83;103382.28;5027360;28;20060;-56
2022/01/24 05:34:23;;;;;;;33.00;22.70;;;;;;;4.53;80.25;103383.22;5025796;28;20017;-56
2022/01/24 05:36:49;;;;;;;33.33;22.00;;;;;;;4.55;79.99;103379.56;5027419;28;20025;-57
2022/01/24 05:39:14;;;;;;;33.47;22.93;;;;;;;4.55;80.09;103387.47;5026374;28;20216;-56
2022/01/24 05:41:39;;;;;;;33.73;23.37;;;;;;;4.56;79.73;103389.19;5026429;28;20051;-57
2022/01/24 05:44:06;;;;;;;35.60;22.77;;;;;;;4.58;79.74;103395.22;5027312;28;20072;-57
2022/01/24 05:46:32;;;;;;;32.27;22.40;;;;;;;4.58;79.46;103386.47;5027505;28;20025;-56
2022/01/24 05:48:57;;;;;;;33.87;22.27;;;;;;;4.59;79.61;103388.19;5026235;28;20044;-57
2022/01/24 05:51:24;;;;;;;32.87;22.27;;;;;;;4.60;79.49;103387.25;5027207;28;20029;-57
2022/01/24 05:53:50;;;;;;;34.80;23.10;;;;;;;4.57;79.41;103385.63;5026534;28;20492;-57
2022/01/24 05:56:16;;;;;;;33.35;23.00;;;;;;;4.55;79.32;103386.63;5027620;28;20030;-56
2022/01/24 05:58:41;;;;;;;32.70;22.17;;;;;;;4.55;79.67;103384.84;5026730;28;20029;-56
2022/01/24 06:01:06;;;;;;;32.37;22.57;;;;;;;4.54;79.68;103385.75;5025666;28;20044;-57
2022/01/24 06:03:31;;;;;;;35.03;23.03;;;;;;;4.54;79.55;103391.03;5026839;28;20469;-56
2022/01/24 06:05:57;;;;;;;35.30;22.90;;;;;;;4.50;79.31;103385.97;5028046;28;20594;-57
2022/01/24 06:08:22;;;;;;;37.07;23.27;;;;;;;4.45;79.19;103382.69;5031020;28;20037;-56
2022/01/24 06:10:48;;;;;;;39.63;24.40;;;;;;;4.41;79.13;103382.00;5026958;28;20040;-57
2022/01/24 06:13:14;;;;;;;37.40;23.50;;;;;;;4.43;79.04;103382.78;5027030;28;20029;-56
2022/01/24 06:15:41;;;;;;;39.03;23.93;;;;;;;4.47;79.47;103397.50;5028234;28;20040;-56
2022/01/24 06:18:06;;;;;;;35.23;23.47;;;;;;;4.48;79.04;103387.81;5027656;28;20032;-56
2022/01/24 06:20:31;;;;;;;34.17;22.47;;;;;;;4.48;78.93;103396.56;5027784;28;20029;-55
2022/01/24 06:22:57;;;;;;;36.80;23.70;;;;;;;4.47;79.25;103389.59;5029745;28;20523;-55
2022/01/24 06:25:24;;;;;;;33.00;22.00;;;;;;;4.49;79.75;103397.44;5031317;28;20037;-57
2022/01/24 06:27:50;;;;;;;31.67;22.40;;;;;;;4.46;79.97;103387.91;5030288;28;20021;-56
2022/01/24 06:30:16;;;;;;;36.87;23.27;;;;;;;4.45;79.72;103393.22;5030189;28;20453;-57
2022/01/24 06:32:42;;;;;;;34.57;22.87;;;;;;;4.44;80.10;103396.78;5028754;28;20040;-55
2022/01/24 06:35:12;;;;;;;32.93;21.93;;;;;;;4.43;79.81;103390.66;5031429;28;20087;-56
2022/01/24 06:37:38;;;;;;;35.70;23.10;;;;;;;4.42;80.14;103388.09;5030229;28;20029;-56
2022/01/24 06:40:06;;;;;;;33.63;23.00;;;;;;;4.41;80.15;103389.03;5029919;28;20032;-57
2022/01/24 06:42:31;;;;;;;33.20;22.60;;;;;;;4.40;80.04;103385.53;5029041;28;20040;-56
2022/01/24 06:44:56;;;;;;;38.80;24.00;;;;;;;4.39;80.28;103380.34;5031035;28;20031;-56
2022/01/24 06:47:22;;;;;;;33.03;22.57;;;;;;;4.39;80.36;103385.63;5031311;28;20499;-56
2022/01/24 06:49:48;;;;;;;36.00;23.30;;;;;;;4.39;80.38;103391.72;5030093;28;20033;-56
2022/01/24 06:52:14;;;;;;;34.30;22.50;;;;;;;4.39;80.37;103393.50;5030172;28;20030;-56
2022/01/24 06:54:41;;;;;;;35.77;23.53;;;;;;;4.41;80.17;103396.91;5030917;28;20100;-56
2022/01/24 06:57:07;;;;;;;34.57;22.70;;;;;;;4.41;80.29;103396.91;5030358;28;20025;-57
2022/01/24 06:59:33;;;;;;;35.53;23.20;;;;;;;4.41;80.24;103397.78;5036072;28;20048;-56
2022/01/24 07:01:58;;;;;;;37.63;23.23;;;;;;;4.41;80.06;103396.91;5032741;28;20044;-55
2022/01/24 07:04:23;;;;;;;40.77;23.33;;;;;;;4.41;79.97;103394.28;5030448;28;20030;-56
2022/01/24 07:06:49;;;;;;;36.27;22.60;;;;;;;4.42;80.08;103404.75;5030477;28;20026;-56
2022/01/24 07:09:14;;;;;;;36.07;23.13;;;;;;;4.43;80.37;103409.06;5029650;28;20108;-57
2022/01/24 07:11:39;;;;;;;36.57;23.40;;;;;;;4.43;79.85;103405.59;5030020;28;20041;-57
2022/01/24 07:14:10;;;;;;;37.80;24.23;;;;;;;4.39;79.84;103396.13;5030176;28;20040;-57
2022/01/24 07:17:00;;;;;;;37.67;24.03;;;;;;;4.40;79.61;103413.63;5030129;28;20029;-56
2022/01/24 07:19:26;;;;;;;35.33;23.27;;;;;;;4.34;79.28;103406.88;5029029;28;20041;-57
2022/01/24 07:21:52;;;;;;;35.57;23.37;;;;;;;4.35;79.15;103417.31;5030209;28;20095;-55
2022/01/24 07:24:18;;;;;;;37.57;23.27;;;;;;;4.36;79.41;103410.28;5029701;28;20044;-55
2022/01/24 07:26:43;;;;;;;37.20;24.10;;;;;;;4.37;79.50;103414.63;5030517;28;20040;-57
2022/01/24 07:29:09;;;;;;;34.17;22.33;;;;;;;4.41;79.91;103421.44;5028331;28;20374;-57
2022/01/24 07:31:34;;;;;;;40.43;24.90;;;;;;;4.35;79.83;103411.19;5029506;28;20033;-56
2022/01/24 07:33:59;;;;;;;37.13;24.40;;;;;;;4.38;80.24;103413.69;5025694;28;20025;-56
2022/01/24 07:36:25;;;;;;;37.37;23.90;;;;;;;4.37;80.29;103412.00;5029241;28;20029;-57
2022/01/24 07:38:51;;;;;;;37.57;23.27;;;;;;;4.40;80.49;103422.38;5026756;28;20112;-55
2022/01/24 07:41:23;;;;;;;38.27;25.47;;;;;;;4.39;80.27;103418.03;5026840;28;20025;-56
2022/01/24 07:43:49;;;;;;;36.70;23.03;;;;;;;4.41;80.10;103421.44;5028330;28;20099;-56
2022/01/24 07:46:15;;;;;;;38.03;24.73;;;;;;;4.35;79.78;103416.47;5028287;28;20567;-56
2022/01/24 07:48:40;;;;;;;40.20;25.40;;;;;;;4.36;79.49;103415.53;5028417;28;20108;-55
2022/01/24 07:51:05;;;;;;;39.00;25.73;;;;;;;4.38;79.12;103426.00;5028813;28;20034;-56
2022/01/24 07:53:30;;;;;;;41.20;26.47;;;;;;;4.39;78.99;103430.34;5029846;28;20072;-57
2022/01/24 07:55:57;;;;;;;39.90;25.33;;;;;;;4.40;78.96;103442.56;5029529;28;20091;-56
2022/01/24 07:58:22;;;;;;;40.60;25.70;;;;;;;4.39;79.09;103436.44;5029668;28;20102;-56
2022/01/24 08:00:47;;;;;;;41.20;26.40;;;;;;;4.42;79.15;103438.94;5027484;28;20552;-56
2022/01/24 08:03:14;;;;;;;41.60;26.13;;;;;;;4.44;79.34;103444.13;5032734;28;20031;-56
2022/01/24 08:05:40;;;;;;;38.67;25.00;;;;;;;4.44;79.37;103450.25;5028447;28;20087;-55
2022/01/24 08:08:06;;;;;;;40.73;26.00;;;;;;;4.44;79.33;103445.00;5026598;28;20487;-55
2022/01/24 08:10:31;;;;;;;37.27;24.93;;;;;;;4.46;79.17;103445.78;5025471;28;20048;-56
2022/01/24 08:12:57;;;;;;;39.90;26.23;;;;;;;4.48;79.49;103443.06;5026853;28;20055;-56
2022/01/24 08:15:24;;;;;;;36.97;25.17;;;;;;;4.50;79.29;103447.34;5027556;28;20025;-56
2022/01/24 08:17:49;;;;;;;37.97;24.93;;;;;;;4.45;79.06;103440.59;5025932;28;20385;-56
2022/01/24 08:20:15;;;;;;;39.93;25.13;;;;;;;4.45;79.02;103443.22;5021508;28;20515;-56
2022/01/24 08:22:42;;;;;;;38.30;25.13;;;;;;;4.42;78.80;103438.94;5025528;28;20029;-55
2022/01/24 08:25:08;;;;;;;40.13;25.33;;;;;;;4.41;78.88;103445.13;5030761;28;20029;-55
2022/01/24 08:27:34;;;;;;;38.57;25.47;;;;;;;4.42;78.92;103444.22;5028019;28;20100;-55
2022/01/24 08:30:02;;;;;;;38.43;24.97;;;;;;;4.42;78.83;103456.50;5027663;28;20163;-56
2022/01/24 08:32:28;;;;;;;40.50;26.40;;;;;;;4.40;79.10;103445.19;5027068;28;20343;-56
2022/01/24 08:34:53;;;;;;;39.80;26.27;;;;;;;4.40;79.03;103448.69;5028738;28;20028;-56
2022/01/24 08:37:18;;;;;;;42.90;26.97;;;;;;;4.38;78.72;103447.91;5028720;28;20031;-56
2022/01/24 08:39:44;;;;;;;39.13;25.97;;;;;;;4.39;78.97;103446.13;5027329;28;20041;-57
2022/01/24 08:47:04;;;;;;;42.63;27.40;;;;;;;4.39;78.82;103456.63;5028488;28;20164;-54
2022/01/24 08:49:30;;;;;;;40.77;27.20;;;;;;;4.41;78.94;103455.66;5026694;28;20547;-56
2022/01/24 08:51:55;;;;;;;40.93;27.33;;;;;;;4.43;78.94;103453.81;5027932;28;20026;-56
2022/01/24 08:54:20;;;;;;;45.20;27.47;;;;;;;4.42;78.95;103456.50;5027442;28;20706;-56
2022/01/24 08:56:47;;;;;;;40.57;27.50;;;;;;;4.45;79.08;103459.00;5028204;28;20034;-55
2022/01/24 08:59:13;;;;;;;43.07;28.30;;;;;;;4.45;79.35;103453.75;5027719;28;20029;-55
2022/01/24 09:01:38;;;;;;;46.90;30.37;;;;;;;4.45;79.00;103453.75;5028826;28;20056;-57
2022/01/24 09:04:03;;;;;;;43.43;28.37;;;;;;;4.47;79.16;103457.16;5028195;28;20361;-57
2022/01/24 09:06:29;;;;;;;44.23;29.27;;;;;;;4.44;79.04;103460.78;5028845;28;20515;-55
2022/01/24 09:08:56;;;;;;;44.67;30.03;;;;;;;4.44;78.76;103462.56;5022304;28;20370;-56
2022/01/24 09:11:28;;;;;;;49.03;30.43;;;;;;;4.43;78.72;103460.84;5027844;28;20108;-55
2022/01/24 09:13:54;;;;;;;49.40;31.37;;;;;;;4.39;78.80;103460.13;5028523;28;20497;-56
2022/01/24 09:16:20;;;;;;;56.90;31.30;;;;;;;4.39;78.81;103468.03;5027999;28;20028;-56
2022/01/24 09:18:45;;;;;;;46.70;30.60;;;;;;;4.34;78.67;103459.47;5027187;28;20021;-56
2022/01/24 09:21:10;;;;;;;53.30;31.00;;;;;;;4.35;78.73;103453.28;5027629;28;20024;-56
2022/01/24 09:23:36;;;;;;;51.80;32.70;;;;;;;4.34;78.95;103447.19;5028789;28;20512;-56
2022/01/24 09:26:01;;;;;;;52.20;32.87;;;;;;;4.34;78.89;103459.47;5028418;28;20029;-56
2022/01/24 09:28:26;;;;;;;51.33;32.07;;;;;;;4.33;78.83;103457.72;5027877;28;20541;-56
2022/01/24 09:30:53;;;;;;;55.70;33.43;;;;;;;4.31;78.66;103455.16;5026584;28;20037;-56
2022/01/24 09:33:18;;;;;;;53.97;32.60;;;;;;;4.30;78.60;103452.59;5028000;28;20397;-56
2022/01/24 09:35:44;;;;;;;51.43;32.47;;;;;;;4.32;78.61;103456.88;5027921;28;20469;-56
2022/01/24 09:38:12;;;;;;;51.77;32.30;;;;;;;4.32;78.83;103456.88;5021798;28;20014;-56
2022/01/24 09:40:38;;;;;;;51.47;32.00;;;;;;;4.32;78.48;103469.19;5026482;28;20022;-56
2022/01/24 09:43:04;;;;;;;50.70;31.77;;;;;;;4.30;78.64;103456.09;5026801;28;20099;-56
2022/01/24 09:45:29;;;;;;;53.33;33.00;;;;;;;4.28;78.78;103457.09;5028281;28;20061;-56
2022/01/24 09:47:56;;;;;;;53.97;32.90;;;;;;;4.28;78.39;103457.09;5027139;28;20462;-53
2022/01/24 09:50:22;;;;;;;53.37;32.83;;;;;;;4.26;78.53;103464.19;5027200;28;20623;-56
2022/01/24 09:52:48;;;;;;;55.83;33.63;;;;;;;4.25;78.31;103460.69;5027520;28;20017;-55
2022/01/24 09:55:16;;;;;;;52.30;31.73;;;;;;;4.25;78.03;103459.84;5028332;28;20049;-56
2022/01/24 09:57:42;;;;;;;53.40;32.00;;;;;;;4.28;78.07;103462.34;5030349;28;20507;-54
2022/01/24 10:00:11;;;;;;;56.17;32.40;;;;;;;4.32;78.06;103461.28;5030393;28;20495;-55
2022/01/24 10:02:38;;;;;;;52.30;31.95;;;;;;;4.33;78.30;103463.00;5031953;28;20076;-55
2022/01/24 10:05:22;;;;;;;58.17;33.20;;;;;;;4.34;78.18;103462.97;5031383;28;20029;-56
2022/01/24 10:07:55;;;;;;;56.60;32.90;;;;;;;4.35;78.44;103466.44;5031296;28;20393;-55
2022/01/24 10:10:46;;;;;;;57.17;33.30;;;;;;;4.36;78.36;103460.25;5029053;28;20021;-56
2022/01/24 10:16:35;;;;;;;51.77;32.57;;;;;;;4.37;78.32;103455.84;5026786;28;20068;-56
2022/01/24 10:19:05;;;;;;;51.13;31.63;;;;;;;4.37;78.37;103453.22;5029849;28;20145;-55
2022/01/24 10:21:40;;;;;;;56.10;34.20;;;;;;;4.37;77.96;103450.59;5030491;28;20366;-57
2022/01/24 10:24:06;;;;;;;51.63;33.47;;;;;;;4.33;78.17;103447.22;5030661;28;20120;-56
2022/01/24 10:26:32;;;;;;;54.63;33.30;;;;;;;4.31;78.03;103455.16;5030768;28;20591;-57
2022/01/24 10:28:57;;;;;;;54.57;33.50;;;;;;;4.30;78.11;103457.88;5028921;28;20116;-57
2022/01/24 10:31:28;;;;;;;54.67;33.43;;;;;;;4.30;77.78;103460.50;5026055;28;20112;-55
2022/01/24 10:34:27;;;;;;;56.30;34.50;;;;;;;4.31;78.09;103455.16;5027097;28;20041;-55
2022/01/24 10:36:55;;;;;;;56.47;34.63;;;;;;;4.32;77.61;103456.03;5026898;28;20030;-56
2022/01/24 10:42:36;;;;;;;56.57;34.03;;;;;;;4.30;77.58;103453.47;5028341;28;20034;-56
2022/01/24 10:45:15;;;;;;;56.80;35.37;;;;;;;4.21;77.06;103456.50;5027202;28;20025;-55
2022/01/24 10:47:46;;;;;;;58.38;34.88;;;;;;;4.11;77.28;103457.81;5029979;28;20047;-56
2022/01/24 10:50:21;;;;;;;60.30;36.20;;;;;;;4.11;77.46;103457.81;5028537;28;20072;-56
2022/01/24 10:52:47;;;;;;;61.00;35.37;;;;;;;4.11;77.64;103446.44;5030007;28;20030;-57
2022/01/24 10:55:20;;;;;;;55.57;34.30;;;;;;;4.07;77.42;103450.97;5029905;28;20026;-56
2022/01/24 10:57:55;;;;;;;56.80;35.00;;;;;;;4.02;77.35;103448.50;5029744;28;20121;-55
2022/01/24 11:00:27;;;;;;;57.03;35.93;;;;;;;4.06;77.54;103448.41;5026397;28;20060;-57
2022/01/24 11:02:55;;;;;;;57.10;35.73;;;;;;;4.07;77.42;103437.84;5030183;28;20045;-56
2022/01/24 11:05:26;;;;;;;56.63;33.70;;;;;;;4.06;77.70;103433.50;5025488;28;20123;-56
2022/01/24 11:08:03;;;;;;;58.10;35.70;;;;;;;4.10;77.64;103431.59;5025676;28;20449;-55
2022/01/24 11:10:33;;;;;;;55.83;33.60;;;;;;;4.08;77.23;103438.69;5026670;28;20080;-56
2022/01/24 11:12:58;;;;;;;56.10;34.87;;;;;;;4.05;77.16;103431.78;5028751;28;20108;-56
2022/01/24 11:15:25;;;;;;;54.83;33.97;;;;;;;4.03;77.41;103434.44;5029651;28;20468;-55
2022/01/24 11:17:52;;;;;;;54.67;34.20;;;;;;;4.09;77.38;103449.13;5027748;28;20125;-55
2022/01/24 11:20:19;;;;;;;61.03;34.87;;;;;;;4.11;77.40;103442.03;5031147;28;20114;-56
2022/01/24 11:22:46;;;;;;;56.17;33.93;;;;;;;4.12;77.52;103437.63;5029662;28;20028;-56
2022/01/24 11:25:14;;;;;;;52.93;33.57;;;;;;;4.11;77.65;103435.91;5026231;28;20044;-56
2022/01/24 11:27:43;;;;;;;55.00;33.80;;;;;;;4.09;77.44;103427.25;5028856;28;20340;-56
2022/01/24 11:30:14;;;;;;;53.97;33.20;;;;;;;4.08;77.52;103423.75;5028086;28;20026;-54
2022/01/24 11:32:47;;;;;;;53.00;32.27;;;;;;;4.06;77.39;103432.63;5027724;28;20032;-55
2022/01/24 11:35:12;;;;;;;51.87;31.80;;;;;;;4.01;77.27;103428.41;5026081;28;20041;-56
2022/01/24 11:37:44;;;;;;;55.87;32.57;;;;;;;4.01;77.03;103422.28;5029298;28;20044;-55
2022/01/24 11:40:11;;;;;;;55.87;33.17;;;;;;;4.08;77.81;103433.44;5029555;28;20025;-55
2022/01/24 11:42:37;;;;;;;52.73;33.07;;;;;;;4.15;77.80;103429.59;5024920;28;20029;-56
2022/01/24 11:45:16;;;;;;;56.90;34.40;;;;;;;4.22;77.93;103431.03;5024558;28;20421;-56
2022/01/24 11:47:43;;;;;;;55.22;33.83;;;;;;;4.30;77.89;103427.16;5027975;28;20029;-57
2022/01/24 11:50:24;;;;;;;56.80;34.77;;;;;;;4.37;77.87;103422.50;5027227;28;20119;-55
2022/01/24 11:52:51;;;;;;;57.27;33.63;;;;;;;4.47;77.73;103420.31;5027031;28;20033;-55
2022/01/24 11:55:31;;;;;;;51.60;31.10;;;;;;;4.48;77.58;103414.13;5025261;28;20452;-57
2022/01/24 11:58:00;;;;;;;54.30;33.50;;;;;;;4.46;77.01;103413.34;5028072;28;20072;-56
2022/01/24 12:00:27;;;;;;;54.33;32.37;;;;;;;4.43;77.15;103416.13;5026663;28;20021;-55
2022/01/24 12:02:56;;;;;;;52.47;32.37;;;;;;;4.34;76.51;103414.75;5027968;28;20033;-57
2022/01/24 12:05:29;;;;;;;50.83;31.60;;;;;;;4.32;76.72;103403.41;5027715;28;20393;-57
2022/01/24 12:08:06;;;;;;;51.77;32.57;;;;;;;4.30;76.37;103402.63;5021529;28;20244;-56
2022/01/24 12:10:36;;;;;;;52.37;31.57;;;;;;;4.24;76.50;103398.50;5022673;28;20033;-55
2022/01/24 12:13:19;;;;;;;53.47;31.13;;;;;;;4.18;76.42;103405.81;5026733;28;20041;-56
2022/01/24 12:15:48;;;;;;;49.67;30.80;;;;;;;4.14;76.59;103404.22;5024727;28;20040;-55
2022/01/24 12:18:23;;;;;;;51.53;31.47;;;;;;;4.12;76.43;103406.06;5026945;28;20120;-56
2022/01/24 12:21:08;;;;;;;53.13;32.00;;;;;;;4.15;76.82;103406.78;5023584;28;20496;-55
2022/01/24 12:23:46;;;;;;;53.00;32.47;;;;;;;4.20;76.60;103403.97;5023491;28;20029;-57
2022/01/24 12:26:14;;;;;;;51.17;31.83;;;;;;;4.27;77.10;103410.66;5025266;28;20429;-56
2022/01/24 12:28:42;;;;;;;52.97;32.13;;;;;;;4.26;77.10;103399.28;5025686;28;20053;-57
2022/01/24 12:31:08;;;;;;;53.50;32.00;;;;;;;4.28;76.82;103393.94;5025503;28;20348;-56
2022/01/24 12:33:55;;;;;;;54.13;32.67;;;;;;;4.37;77.27;103395.34;5026094;28;20096;-55
2022/01/24 12:39:35;;;;;;;53.13;32.47;;;;;;;4.54;77.32;103383.13;5025117;28;20108;-54
2022/01/24 12:42:17;;;;;;;54.60;32.60;;;;;;;4.55;77.18;103378.72;5026062;28;20040;-56
2022/01/24 12:47:20;;;;;;;51.00;31.80;;;;;;;4.52;76.60;103374.47;5028441;28;20067;-56
2022/01/24 12:49:47;;;;;;;52.93;31.70;;;;;;;4.55;76.57;103378.72;5027878;28;20032;-55
2022/01/24 12:52:16;;;;;;;49.10;30.97;;;;;;;4.52;76.56;103384.13;5028084;28;20108;-57
2022/01/24 12:54:50;;;;;;;50.70;31.60;;;;;;;4.53;76.18;103381.44;5028944;28;20056;-56
2022/01/24 12:57:18;;;;;;;49.90;31.03;;;;;;;4.49;76.21;103369.34;5028345;28;20083;-55
2022/01/24 12:59:57;;;;;;;52.13;32.20;;;;;;;4.52;76.29;103363.94;5027728;28;20026;-57
2022/01/24 13:02:25;;;;;;;53.73;31.30;;;;;;;4.56;76.30;103362.88;5027702;28;20468;-57
2022/01/24 13:04:52;;;;;;;52.33;31.97;;;;;;;4.53;76.08;103362.16;5028593;28;20100;-55
2022/01/24 13:07:18;;;;;;;52.13;31.80;;;;;;;4.51;76.15;103356.97;5025190;28;20485;-56
2022/01/24 13:09:43;;;;;;;51.57;32.60;;;;;;;4.53;76.10;103355.13;5027207;28;20087;-56
2022/01/24 13:12:10;;;;;;;53.87;31.60;;;;;;;4.60;76.15;103345.16;5028274;28;20053;-56